sensor_id;sensor_type;location;lat;lon;timestamp;P1;durP1;ratioP1;P2;durP2;ratioP2
43327;SDS011;28923;45.412;10.852;2023-07-22T04:33:05;5.18;;;2.92;;
43327;SDS011;28923;45.412;10.852;2023-07-22T04:35:38;5.55;;;2.95;;
43327;SDS011;28923;45.412;10.852;2023-07-22T04:38:06;3.83;;;2.80;;
43327;SDS011;28923;45.412;10.852;2023-07-22T04:40:32;4.20;;;2.53;;
43327;SDS011;28923;45.412;10.852;2023-07-22T04:42:59;5.07;;;3.08;;
43327;SDS011;28923;45.412;10.852;2023-07-22T04:45:25;4.97;;;2.83;;
43327;SDS011;28923;45.412;10.852;2023-07-22T04:47:51;4.55;;;2.78;;
43327;SDS011;28923;45.412;10.852;2023-07-22T04:50:17;5.72;;;3.28;;
43327;SDS011;28923;45.412;10.852;2023-07-22T04:52:43;5.10;;;3.25;;
43327;SDS011;28923;45.412;10.852;2023-07-22T04:55:10;5.50;;;2.50;;
43327;SDS011;28923;45.412;10.852;2023-07-22T05:00:13;5.55;;;2.85;;
43327;SDS011;28923;45.412;10.852;2023-07-22T05:02:39;4.55;;;2.70;;
43327;SDS011;28923;45.412;10.852;2023-07-22T05:05:05;4.15;;;2.47;;
43327;SDS011;28923;45.412;10.852;2023-07-22T05:07:30;4.90;;;2.60;;
43327;SDS011;28923;45.412;10.852;2023-07-22T05:09:56;5.30;;;2.20;;
43327;SDS011;28923;45.412;10.852;2023-07-22T05:12:21;4.45;;;2.35;;
43327;SDS011;28923;45.412;10.852;2023-07-22T05:14:47;4.25;;;2.00;;
43327;SDS011;28923;45.412;10.852;2023-07-22T05:17:13;3.33;;;1.98;;
43327;SDS011;28923;45.412;10.852;2023-07-22T05:19:38;4.45;;;2.00;;
43327;SDS011;28923;45.412;10.852;2023-07-22T05:22:04;3.17;;;2.50;;
43327;SDS011;28923;45.412;10.852;2023-07-22T05:24:30;4.30;;;2.35;;
43327;SDS011;28923;45.412;10.852;2023-07-22T05:26:55;3.45;;;1.95;;
43327;SDS011;28923;45.412;10.852;2023-07-22T05:29:21;2.90;;;2.00;;
43327;SDS011;28923;45.412;10.852;2023-07-22T05:31:46;4.28;;;2.03;;
43327;SDS011;28923;45.412;10.852;2023-07-22T05:34:12;3.47;;;2.10;;
43327;SDS011;28923;45.412;10.852;2023-07-22T05:36:37;2.80;;;1.98;;
43327;SDS011;28923;45.412;10.852;2023-07-22T05:39:03;4.82;;;2.17;;
43327;SDS011;28923;45.412;10.852;2023-07-22T05:41:28;3.35;;;2.08;;
43327;SDS011;28923;45.412;10.852;2023-07-22T05:43:54;4.95;;;1.90;;
43327;SDS011;28923;45.412;10.852;2023-07-22T05:46:19;3.45;;;1.95;;
43327;SDS011;28923;45.412;10.852;2023-07-22T05:48:45;2.65;;;2.10;;
43327;SDS011;28923;45.412;10.852;2023-07-22T05:51:10;3.78;;;1.98;;
43327;SDS011;28923;45.412;10.852;2023-07-22T05:53:35;3.33;;;2.22;;
43327;SDS011;28923;45.412;10.852;2023-07-22T05:56:01;3.30;;;2.10;;
43327;SDS011;28923;45.412;10.852;2023-07-22T05:58:26;3.47;;;2.10;;
43327;SDS011;28923;45.412;10.852;2023-07-22T06:00:53;4.30;;;2.08;;
43327;SDS011;28923;45.412;10.852;2023-07-22T06:03:18;4.47;;;1.90;;
43327;SDS011;28923;45.412;10.852;2023-07-22T06:05:44;2.90;;;1.90;;
43327;SDS011;28923;45.412;10.852;2023-07-22T06:08:09;2.88;;;1.80;;
43327;SDS011;28923;45.412;10.852;2023-07-22T06:10:35;3.63;;;1.80;;
43327;SDS011;28923;45.412;10.852;2023-07-22T06:13:03;2.90;;;1.90;;
43327;SDS011;28923;45.412;10.852;2023-07-22T06:15:29;2.83;;;2.42;;
43327;SDS011;28923;45.412;10.852;2023-07-22T06:17:54;3.88;;;2.28;;
43327;SDS011;28923;45.412;10.852;2023-07-22T06:20:19;3.65;;;2.00;;
43327;SDS011;28923;45.412;10.852;2023-07-22T06:22:45;3.58;;;2.30;;
43327;SDS011;28923;45.412;10.852;2023-07-22T06:25:10;3.17;;;1.90;;
43327;SDS011;28923;45.412;10.852;2023-07-22T06:27:37;3.25;;;2.00;;
43327;SDS011;28923;45.412;10.852;2023-07-22T06:30:03;3.70;;;2.17;;
43327;SDS011;28923;45.412;10.852;2023-07-22T06:32:29;2.80;;;2.28;;
43327;SDS011;28923;45.412;10.852;2023-07-22T06:34:55;5.50;;;2.45;;
43327;SDS011;28923;45.412;10.852;2023-07-22T06:37:22;2.90;;;2.20;;
43327;SDS011;28923;45.412;10.852;2023-07-22T06:39:48;5.25;;;2.15;;
43327;SDS011;28923;45.412;10.852;2023-07-22T06:42:13;3.10;;;1.98;;
43327;SDS011;28923;45.412;10.852;2023-07-22T06:44:39;4.78;;;2.05;;
43327;SDS011;28923;45.412;10.852;2023-07-22T06:47:04;4.78;;;2.10;;
43327;SDS011;28923;45.412;10.852;2023-07-22T06:49:30;3.05;;;2.22;;
43327;SDS011;28923;45.412;10.852;2023-07-22T06:51:55;2.63;;;1.90;;
43327;SDS011;28923;45.412;10.852;2023-07-22T06:54:21;2.75;;;2.03;;
43327;SDS011;28923;45.412;10.852;2023-07-22T06:56:46;2.13;;;1.92;;
43327;SDS011;28923;45.412;10.852;2023-07-22T06:59:12;2.50;;;2.08;;
43327;SDS011;28923;45.412;10.852;2023-07-22T07:01:37;3.28;;;2.20;;
43327;SDS011;28923;45.412;10.852;2023-07-22T07:04:03;3.15;;;1.90;;
43327;SDS011;28923;45.412;10.852;2023-07-22T07:06:28;2.08;;;1.60;;
43327;SDS011;28923;45.412;10.852;2023-07-22T07:08:55;2.85;;;2.00;;
43327;SDS011;28923;45.412;10.852;2023-07-22T07:11:20;3.80;;;2.60;;
43327;SDS011;28923;45.412;10.852;2023-07-22T07:13:46;3.25;;;2.47;;
43327;SDS011;28923;45.412;10.852;2023-07-22T07:16:27;3.30;;;2.25;;
43327;SDS011;28923;45.412;10.852;2023-07-22T07:18:53;3.70;;;2.27;;
43327;SDS011;28923;45.412;10.852;2023-07-22T07:21:20;3.30;;;2.10;;
43327;SDS011;28923;45.412;10.852;2023-07-22T07:23:45;5.18;;;2.65;;
43327;SDS011;28923;45.412;10.852;2023-07-22T07:26:11;3.78;;;2.40;;
43327;SDS011;28923;45.412;10.852;2023-07-22T07:28:36;2.65;;;1.88;;
43327;SDS011;28923;45.412;10.852;2023-07-22T07:31:02;4.20;;;2.05;;
43327;SDS011;28923;45.412;10.852;2023-07-22T07:33:28;2.85;;;1.92;;
43327;SDS011;28923;45.412;10.852;2023-07-22T07:35:53;5.00;;;2.10;;
43327;SDS011;28923;45.412;10.852;2023-07-22T07:38:19;2.20;;;1.73;;
43327;SDS011;28923;45.412;10.852;2023-07-22T07:40:44;4.47;;;1.98;;
43327;SDS011;28923;45.412;10.852;2023-07-22T07:43:09;2.60;;;1.90;;
43327;SDS011;28923;45.412;10.852;2023-07-22T07:45:38;4.28;;;2.00;;
43327;SDS011;28923;45.412;10.852;2023-07-22T07:48:04;2.78;;;1.55;;
43327;SDS011;28923;45.412;10.852;2023-07-22T07:50:29;2.17;;;1.73;;
43327;SDS011;28923;45.412;10.852;2023-07-22T07:52:54;2.47;;;1.52;;
43327;SDS011;28923;45.412;10.852;2023-07-22T07:55:20;3.80;;;2.22;;
43327;SDS011;28923;45.412;10.852;2023-07-22T07:57:45;3.10;;;1.90;;
43327;SDS011;28923;45.412;10.852;2023-07-22T08:00:11;4.38;;;2.28;;
43327;SDS011;28923;45.412;10.852;2023-07-22T08:02:37;3.70;;;1.88;;
43327;SDS011;28923;45.412;10.852;2023-07-22T08:05:02;5.10;;;1.98;;
43327;SDS011;28923;45.412;10.852;2023-07-22T08:07:28;2.63;;;1.50;;
43327;SDS011;28923;45.412;10.852;2023-07-22T08:09:53;5.28;;;2.13;;
43327;SDS011;28923;45.412;10.852;2023-07-22T08:12:19;2.00;;;1.48;;
43327;SDS011;28923;45.412;10.852;2023-07-22T08:14:45;1.95;;;1.52;;
43327;SDS011;28923;45.412;10.852;2023-07-22T08:17:10;3.83;;;1.90;;
43327;SDS011;28923;45.412;10.852;2023-07-22T08:19:35;2.50;;;1.73;;
43327;SDS011;28923;45.412;10.852;2023-07-22T08:22:01;4.95;;;2.03;;
43327;SDS011;28923;45.412;10.852;2023-07-22T08:24:26;2.30;;;1.80;;
43327;SDS011;28923;45.412;10.852;2023-07-22T08:26:52;2.90;;;1.83;;
43327;SDS011;28923;45.412;10.852;2023-07-22T08:29:17;2.30;;;1.50;;
43327;SDS011;28923;45.412;10.852;2023-07-22T08:31:42;2.63;;;1.77;;
43327;SDS011;28923;45.412;10.852;2023-07-22T08:34:08;1.85;;;1.50;;
43327;SDS011;28923;45.412;10.852;2023-07-22T08:36:33;2.10;;;1.80;;
43327;SDS011;28923;45.412;10.852;2023-07-22T08:38:59;2.42;;;1.58;;
43327;SDS011;28923;45.412;10.852;2023-07-22T08:41:24;2.47;;;1.65;;
43327;SDS011;28923;45.412;10.852;2023-07-22T08:43:50;2.78;;;1.75;;
43327;SDS011;28923;45.412;10.852;2023-07-22T08:46:16;3.15;;;1.67;;
43327;SDS011;28923;45.412;10.852;2023-07-22T08:48:44;2.90;;;1.80;;
43327;SDS011;28923;45.412;10.852;2023-07-22T08:51:17;1.60;;;1.50;;
43327;SDS011;28923;45.412;10.852;2023-07-22T08:53:44;1.80;;;1.70;;
43327;SDS011;28923;45.412;10.852;2023-07-22T08:56:10;2.55;;;1.50;;
43327;SDS011;28923;45.412;10.852;2023-07-22T08:58:35;2.30;;;1.58;;
43327;SDS011;28923;45.412;10.852;2023-07-22T09:01:01;1.65;;;1.38;;
43327;SDS011;28923;45.412;10.852;2023-07-22T09:03:27;2.05;;;1.80;;
43327;SDS011;28923;45.412;10.852;2023-07-22T09:05:53;2.67;;;1.65;;
43327;SDS011;28923;45.412;10.852;2023-07-22T09:08:19;1.80;;;1.58;;
43327;SDS011;28923;45.412;10.852;2023-07-22T09:10:44;3.05;;;1.50;;
43327;SDS011;28923;45.412;10.852;2023-07-22T09:13:10;1.90;;;1.65;;
43327;SDS011;28923;45.412;10.852;2023-07-22T09:15:36;1.52;;;1.30;;
43327;SDS011;28923;45.412;10.852;2023-07-22T09:18:02;2.05;;;1.60;;
43327;SDS011;28923;45.412;10.852;2023-07-22T09:20:27;1.83;;;1.38;;
43327;SDS011;28923;45.412;10.852;2023-07-22T09:22:54;2.13;;;1.58;;
43327;SDS011;28923;45.412;10.852;2023-07-22T09:27:45;17.88;;;2.17;;
43327;SDS011;28923;45.412;10.852;2023-07-22T09:30:30;2.47;;;1.85;;
43327;SDS011;28923;45.412;10.852;2023-07-22T09:32:57;2.05;;;1.50;;
43327;SDS011;28923;45.412;10.852;2023-07-22T09:35:24;3.35;;;1.48;;
43327;SDS011;28923;45.412;10.852;2023-07-22T09:37:50;2.20;;;1.50;;
43327;SDS011;28923;45.412;10.852;2023-07-22T09:40:19;1.95;;;1.40;;
43327;SDS011;28923;45.412;10.852;2023-07-22T09:42:45;2.00;;;1.42;;
43327;SDS011;28923;45.412;10.852;2023-07-22T09:45:10;2.63;;;1.55;;
43327;SDS011;28923;45.412;10.852;2023-07-22T09:47:39;3.30;;;1.45;;
43327;SDS011;28923;45.412;10.852;2023-07-22T09:50:05;2.88;;;1.10;;
43327;SDS011;28923;45.412;10.852;2023-07-22T09:52:31;2.00;;;1.38;;
43327;SDS011;28923;45.412;10.852;2023-07-22T09:54:58;2.13;;;1.27;;
43327;SDS011;28923;45.412;10.852;2023-07-22T09:57:23;2.03;;;1.23;;
43327;SDS011;28923;45.412;10.852;2023-07-22T09:59:49;3.90;;;1.35;;
43327;SDS011;28923;45.412;10.852;2023-07-22T10:02:17;3.03;;;1.52;;
43327;SDS011;28923;45.412;10.852;2023-07-22T10:04:43;2.45;;;1.30;;
43327;SDS011;28923;45.412;10.852;2023-07-22T10:07:10;2.45;;;1.48;;
43327;SDS011;28923;45.412;10.852;2023-07-22T10:09:36;2.45;;;1.20;;
43327;SDS011;28923;45.412;10.852;2023-07-22T10:12:02;2.38;;;1.08;;
43327;SDS011;28923;45.412;10.852;2023-07-22T10:14:28;1.85;;;1.05;;
43327;SDS011;28923;45.412;10.852;2023-07-22T10:16:54;1.38;;;1.17;;
43327;SDS011;28923;45.412;10.852;2023-07-22T10:19:20;1.33;;;1.00;;
43327;SDS011;28923;45.412;10.852;2023-07-22T10:21:46;1.42;;;1.17;;
43327;SDS011;28923;45.412;10.852;2023-07-22T10:24:12;1.45;;;0.90;;
43327;SDS011;28923;45.412;10.852;2023-07-22T10:26:38;2.10;;;1.10;;
43327;SDS011;28923;45.412;10.852;2023-07-22T10:29:05;1.67;;;1.02;;
43327;SDS011;28923;45.412;10.852;2023-07-22T10:31:31;1.15;;;1.00;;
43327;SDS011;28923;45.412;10.852;2023-07-22T10:33:56;1.90;;;1.20;;
43327;SDS011;28923;45.412;10.852;2023-07-22T10:36:22;1.30;;;1.20;;
43327;SDS011;28923;45.412;10.852;2023-07-22T10:38:57;1.88;;;1.20;;
43327;SDS011;28923;45.412;10.852;2023-07-22T10:41:22;1.38;;;1.00;;
43327;SDS011;28923;45.412;10.852;2023-07-22T10:43:55;0.98;;;0.90;;
43327;SDS011;28923;45.412;10.852;2023-07-22T10:46:41;1.63;;;1.15;;
43327;SDS011;28923;45.412;10.852;2023-07-22T10:49:15;3.28;;;1.40;;
43327;SDS011;28923;45.412;10.852;2023-07-22T10:51:41;4.47;;;1.67;;
43327;SDS011;28923;45.412;10.852;2023-07-22T10:54:10;2.05;;;1.85;;
43327;SDS011;28923;45.412;10.852;2023-07-22T10:56:36;5.47;;;2.05;;
43327;SDS011;28923;45.412;10.852;2023-07-22T10:59:01;4.93;;;2.35;;
43327;SDS011;28923;45.412;10.852;2023-07-22T11:06:37;3.25;;;2.20;;
43327;SDS011;28923;45.412;10.852;2023-07-22T11:09:02;4.35;;;2.20;;
43327;SDS011;28923;45.412;10.852;2023-07-22T11:11:38;3.70;;;2.03;;
43327;SDS011;28923;45.412;10.852;2023-07-22T11:14:14;3.33;;;1.98;;
43327;SDS011;28923;45.412;10.852;2023-07-22T11:16:41;4.88;;;2.20;;
43327;SDS011;28923;45.412;10.852;2023-07-22T11:19:06;3.97;;;2.20;;
43327;SDS011;28923;45.412;10.852;2023-07-22T11:21:32;5.22;;;2.40;;
43327;SDS011;28923;45.412;10.852;2023-07-22T11:23:57;3.80;;;2.20;;
43327;SDS011;28923;45.412;10.852;2023-07-22T11:26:22;3.20;;;1.88;;
43327;SDS011;28923;45.412;10.852;2023-07-22T11:28:48;3.42;;;2.42;;
43327;SDS011;28923;45.412;10.852;2023-07-22T11:31:13;4.57;;;2.08;;
43327;SDS011;28923;45.412;10.852;2023-07-22T11:33:39;5.35;;;2.20;;
43327;SDS011;28923;45.412;10.852;2023-07-22T11:36:05;3.25;;;2.80;;
43327;SDS011;28923;45.412;10.852;2023-07-22T11:38:30;3.47;;;2.13;;
43327;SDS011;28923;45.412;10.852;2023-07-22T11:40:55;5.88;;;2.40;;
43327;SDS011;28923;45.412;10.852;2023-07-22T11:43:21;3.95;;;2.40;;
43327;SDS011;28923;45.412;10.852;2023-07-22T11:45:46;3.40;;;2.33;;
43327;SDS011;28923;45.412;10.852;2023-07-22T11:48:11;3.97;;;2.50;;
43327;SDS011;28923;45.412;10.852;2023-07-22T11:50:38;2.97;;;1.90;;
43327;SDS011;28923;45.412;10.852;2023-07-22T11:53:03;3.42;;;2.63;;
43327;SDS011;28923;45.412;10.852;2023-07-22T11:55:28;3.28;;;2.30;;
43327;SDS011;28923;45.412;10.852;2023-07-22T11:57:54;3.67;;;2.10;;
43327;SDS011;28923;45.412;10.852;2023-07-22T12:00:20;2.67;;;1.83;;
43327;SDS011;28923;45.412;10.852;2023-07-22T12:02:45;3.67;;;2.30;;
43327;SDS011;28923;45.412;10.852;2023-07-22T12:05:10;3.05;;;2.22;;
43327;SDS011;28923;45.412;10.852;2023-07-22T12:07:37;2.45;;;2.10;;
43327;SDS011;28923;45.412;10.852;2023-07-22T12:10:03;3.22;;;2.03;;
43327;SDS011;28923;45.412;10.852;2023-07-22T12:12:37;3.60;;;2.05;;
43327;SDS011;28923;45.412;10.852;2023-07-22T12:17:29;3.17;;;2.10;;
43327;SDS011;28923;45.412;10.852;2023-07-22T12:19:54;2.05;;;1.80;;
43327;SDS011;28923;45.412;10.852;2023-07-22T12:22:20;3.83;;;2.05;;
43327;SDS011;28923;45.412;10.852;2023-07-22T12:24:48;3.50;;;2.20;;
43327;SDS011;28923;45.412;10.852;2023-07-22T12:27:13;2.45;;;1.60;;
43327;SDS011;28923;45.412;10.852;2023-07-22T12:29:39;3.38;;;2.20;;
43327;SDS011;28923;45.412;10.852;2023-07-22T12:32:04;2.65;;;1.90;;
43327;SDS011;28923;45.412;10.852;2023-07-22T12:34:30;3.80;;;1.70;;
43327;SDS011;28923;45.412;10.852;2023-07-22T12:36:55;3.22;;;1.70;;
43327;SDS011;28923;45.412;10.852;2023-07-22T12:39:20;3.17;;;1.90;;
43327;SDS011;28923;45.412;10.852;2023-07-22T12:41:46;3.30;;;1.80;;
43327;SDS011;28923;45.412;10.852;2023-07-22T12:44:11;2.85;;;2.00;;
43327;SDS011;28923;45.412;10.852;2023-07-22T12:46:36;3.38;;;1.92;;
43327;SDS011;28923;45.412;10.852;2023-07-22T12:49:02;2.95;;;1.80;;
43327;SDS011;28923;45.412;10.852;2023-07-22T12:51:27;2.35;;;1.80;;
43327;SDS011;28923;45.412;10.852;2023-07-22T12:53:52;1.80;;;1.52;;
43327;SDS011;28923;45.412;10.852;2023-07-22T12:56:18;1.90;;;1.70;;
43327;SDS011;28923;45.412;10.852;2023-07-22T12:58:43;3.17;;;1.90;;
43327;SDS011;28923;45.412;10.852;2023-07-22T13:01:09;2.08;;;1.88;;
43327;SDS011;28923;45.412;10.852;2023-07-22T13:03:34;1.63;;;1.40;;
43327;SDS011;28923;45.412;10.852;2023-07-22T13:05:59;2.97;;;1.67;;
43327;SDS011;28923;45.412;10.852;2023-07-22T13:08:25;1.98;;;1.60;;
43327;SDS011;28923;45.412;10.852;2023-07-22T13:10:50;2.58;;;1.67;;
43327;SDS011;28923;45.412;10.852;2023-07-22T13:13:15;2.55;;;1.58;;
43327;SDS011;28923;45.412;10.852;2023-07-22T13:15:41;2.90;;;1.80;;
43327;SDS011;28923;45.412;10.852;2023-07-22T13:18:06;4.47;;;2.03;;
43327;SDS011;28923;45.412;10.852;2023-07-22T13:20:32;7.80;;;1.90;;
43327;SDS011;28923;45.412;10.852;2023-07-22T13:22:58;2.53;;;1.58;;
43327;SDS011;28923;45.412;10.852;2023-07-22T13:25:23;2.60;;;1.70;;
43327;SDS011;28923;45.412;10.852;2023-07-22T13:27:48;3.10;;;1.70;;
43327;SDS011;28923;45.412;10.852;2023-07-22T13:30:14;5.35;;;2.10;;
43327;SDS011;28923;45.412;10.852;2023-07-22T13:32:39;3.33;;;2.05;;
43327;SDS011;28923;45.412;10.852;2023-07-22T13:35:05;5.80;;;1.70;;
43327;SDS011;28923;45.412;10.852;2023-07-22T13:37:30;4.85;;;2.13;;
43327;SDS011;28923;45.412;10.852;2023-07-22T13:39:56;3.72;;;1.77;;
43327;SDS011;28923;45.412;10.852;2023-07-22T13:42:23;5.13;;;2.17;;
43327;SDS011;28923;45.412;10.852;2023-07-22T13:44:48;3.85;;;1.60;;
43327;SDS011;28923;45.412;10.852;2023-07-22T13:47:13;2.95;;;2.10;;
43327;SDS011;28923;45.412;10.852;2023-07-22T13:49:39;1.35;;;1.23;;
43327;SDS011;28923;45.412;10.852;2023-07-22T13:52:04;4.38;;;1.92;;
43327;SDS011;28923;45.412;10.852;2023-07-22T13:54:29;5.25;;;1.80;;
43327;SDS011;28923;45.412;10.852;2023-07-22T13:56:55;1.75;;;1.38;;
43327;SDS011;28923;45.412;10.852;2023-07-22T13:59:20;2.33;;;1.80;;
43327;SDS011;28923;45.412;10.852;2023-07-22T14:01:45;1.92;;;1.30;;
43327;SDS011;28923;45.412;10.852;2023-07-22T14:04:11;2.35;;;1.50;;
43327;SDS011;28923;45.412;10.852;2023-07-22T14:06:36;4.65;;;1.55;;
43327;SDS011;28923;45.412;10.852;2023-07-22T14:09:01;1.60;;;1.42;;
43327;SDS011;28923;45.412;10.852;2023-07-22T14:11:27;2.08;;;1.30;;
43327;SDS011;28923;45.412;10.852;2023-07-22T14:13:52;1.85;;;1.00;;
43327;SDS011;28923;45.412;10.852;2023-07-22T14:16:18;1.70;;;1.45;;
43327;SDS011;28923;45.412;10.852;2023-07-22T14:18:43;2.67;;;1.30;;
43327;SDS011;28923;45.412;10.852;2023-07-22T14:21:09;2.08;;;1.63;;
43327;SDS011;28923;45.412;10.852;2023-07-22T14:23:36;1.60;;;1.20;;
43327;SDS011;28923;45.412;10.852;2023-07-22T14:26:01;2.40;;;1.23;;
43327;SDS011;28923;45.412;10.852;2023-07-22T14:28:27;1.40;;;1.30;;
43327;SDS011;28923;45.412;10.852;2023-07-22T14:30:52;1.55;;;1.25;;
43327;SDS011;28923;45.412;10.852;2023-07-22T14:33:17;1.55;;;1.42;;
43327;SDS011;28923;45.412;10.852;2023-07-22T14:35:43;1.63;;;1.40;;
43327;SDS011;28923;45.412;10.852;2023-07-22T14:38:08;1.40;;;1.20;;
43327;SDS011;28923;45.412;10.852;2023-07-22T14:40:33;2.25;;;1.27;;
43327;SDS011;28923;45.412;10.852;2023-07-22T14:42:59;1.33;;;1.10;;
43327;SDS011;28923;45.412;10.852;2023-07-22T14:45:24;2.53;;;1.17;;
43327;SDS011;28923;45.412;10.852;2023-07-22T14:47:49;1.63;;;1.35;;
43327;SDS011;28923;45.412;10.852;2023-07-22T14:50:15;1.30;;;1.20;;
43327;SDS011;28923;45.412;10.852;2023-07-22T14:52:40;1.10;;;1.02;;
43327;SDS011;28923;45.412;10.852;2023-07-22T14:55:07;1.33;;;1.10;;
43327;SDS011;28923;45.412;10.852;2023-07-22T14:57:34;1.20;;;0.90;;
43327;SDS011;28923;45.412;10.852;2023-07-22T14:59:59;1.33;;;1.00;;
43327;SDS011;28923;45.412;10.852;2023-07-22T15:02:24;1.00;;;0.90;;
43327;SDS011;28923;45.412;10.852;2023-07-22T15:04:50;1.38;;;1.10;;
43327;SDS011;28923;45.412;10.852;2023-07-22T15:07:15;1.45;;;0.98;;
43327;SDS011;28923;45.412;10.852;2023-07-22T15:09:40;1.30;;;1.13;;
43327;SDS011;28923;45.412;10.852;2023-07-22T15:12:06;1.83;;;1.10;;
43327;SDS011;28923;45.412;10.852;2023-07-22T15:14:32;1.23;;;0.82;;
43327;SDS011;28923;45.412;10.852;2023-07-22T15:16:58;1.80;;;1.02;;
43327;SDS011;28923;45.412;10.852;2023-07-22T15:19:23;1.23;;;0.80;;
43327;SDS011;28923;45.412;10.852;2023-07-22T15:21:48;1.10;;;1.00;;
43327;SDS011;28923;45.412;10.852;2023-07-22T15:24:14;1.10;;;1.00;;
43327;SDS011;28923;45.412;10.852;2023-07-22T15:26:39;1.77;;;1.02;;
43327;SDS011;28923;45.412;10.852;2023-07-22T15:29:05;1.45;;;1.10;;
43327;SDS011;28923;45.412;10.852;2023-07-22T15:31:30;0.85;;;0.80;;
43327;SDS011;28923;45.412;10.852;2023-07-22T15:33:55;0.88;;;0.82;;
43327;SDS011;28923;45.412;10.852;2023-07-22T15:36:21;0.80;;;0.80;;
43327;SDS011;28923;45.412;10.852;2023-07-22T15:38:46;0.95;;;0.90;;
43327;SDS011;28923;45.412;10.852;2023-07-22T15:41:11;1.00;;;0.90;;
43327;SDS011;28923;45.412;10.852;2023-07-22T15:43:37;1.10;;;1.00;;
43327;SDS011;28923;45.412;10.852;2023-07-22T15:46:02;0.95;;;0.85;;
43327;SDS011;28923;45.412;10.852;2023-07-22T15:48:28;1.17;;;1.08;;
43327;SDS011;28923;45.412;10.852;2023-07-22T15:50:53;1.50;;;1.15;;
43327;SDS011;28923;45.412;10.852;2023-07-22T15:53:20;0.68;;;0.68;;
43327;SDS011;28923;45.412;10.852;2023-07-22T15:55:45;1.02;;;0.90;;
43327;SDS011;28923;45.412;10.852;2023-07-22T15:58:11;1.38;;;1.10;;
43327;SDS011;28923;45.412;10.852;2023-07-22T16:00:36;1.00;;;0.90;;
43327;SDS011;28923;45.412;10.852;2023-07-22T16:03:01;1.48;;;0.88;;
43327;SDS011;28923;45.412;10.852;2023-07-22T16:05:27;0.82;;;0.82;;
43327;SDS011;28923;45.412;10.852;2023-07-22T16:07:52;1.98;;;1.05;;
43327;SDS011;28923;45.412;10.852;2023-07-22T16:10:18;1.52;;;1.05;;
43327;SDS011;28923;45.412;10.852;2023-07-22T16:12:43;1.27;;;0.90;;
43327;SDS011;28923;45.412;10.852;2023-07-22T16:15:09;1.08;;;0.98;;
43327;SDS011;28923;45.412;10.852;2023-07-22T16:17:34;0.93;;;0.90;;
43327;SDS011;28923;45.412;10.852;2023-07-22T16:19:59;0.95;;;0.90;;
43327;SDS011;28923;45.412;10.852;2023-07-22T16:22:25;0.80;;;0.75;;
43327;SDS011;28923;45.412;10.852;2023-07-22T16:24:50;1.00;;;0.98;;
43327;SDS011;28923;45.412;10.852;2023-07-22T16:27:16;1.88;;;0.85;;
43327;SDS011;28923;45.412;10.852;2023-07-22T16:29:41;1.20;;;1.00;;
43327;SDS011;28923;45.412;10.852;2023-07-22T16:32:07;0.88;;;0.88;;
43327;SDS011;28923;45.412;10.852;2023-07-22T16:34:33;1.05;;;0.88;;
43327;SDS011;28923;45.412;10.852;2023-07-22T16:36:58;1.00;;;0.85;;
43327;SDS011;28923;45.412;10.852;2023-07-22T16:39:23;1.00;;;0.85;;
43327;SDS011;28923;45.412;10.852;2023-07-22T16:41:49;0.80;;;0.80;;
43327;SDS011;28923;45.412;10.852;2023-07-22T16:44:15;0.82;;;0.82;;
43327;SDS011;28923;45.412;10.852;2023-07-22T16:46:42;1.35;;;1.00;;
43327;SDS011;28923;45.412;10.852;2023-07-22T16:49:07;0.90;;;0.68;;
43327;SDS011;28923;45.412;10.852;2023-07-22T16:51:33;0.70;;;0.70;;
43327;SDS011;28923;45.412;10.852;2023-07-22T16:53:58;1.20;;;0.93;;
43327;SDS011;28923;45.412;10.852;2023-07-22T16:56:24;0.70;;;0.70;;
43327;SDS011;28923;45.412;10.852;2023-07-22T16:58:49;0.80;;;0.80;;
43327;SDS011;28923;45.412;10.852;2023-07-22T17:01:14;2.05;;;0.88;;
43327;SDS011;28923;45.412;10.852;2023-07-22T17:03:40;0.82;;;0.82;;
43327;SDS011;28923;45.412;10.852;2023-07-22T17:06:05;1.75;;;1.05;;
43327;SDS011;28923;45.412;10.852;2023-07-22T17:08:31;1.48;;;1.02;;
43327;SDS011;28923;45.412;10.852;2023-07-22T17:10:56;0.73;;;0.70;;
43327;SDS011;28923;45.412;10.852;2023-07-22T17:13:21;2.05;;;1.08;;
43327;SDS011;28923;45.412;10.852;2023-07-22T17:15:47;1.13;;;0.95;;
43327;SDS011;28923;45.412;10.852;2023-07-22T17:18:12;1.33;;;1.00;;
43327;SDS011;28923;45.412;10.852;2023-07-22T17:20:38;1.30;;;0.80;;
43327;SDS011;28923;45.412;10.852;2023-07-22T17:23:04;1.10;;;0.90;;
43327;SDS011;28923;45.412;10.852;2023-07-22T17:25:29;0.93;;;0.90;;
43327;SDS011;28923;45.412;10.852;2023-07-22T17:27:55;0.90;;;0.90;;
43327;SDS011;28923;45.412;10.852;2023-07-22T17:30:20;2.03;;;1.10;;
43327;SDS011;28923;45.412;10.852;2023-07-22T17:32:46;2.30;;;1.00;;
43327;SDS011;28923;45.412;10.852;2023-07-22T17:35:16;2.10;;;1.27;;
43327;SDS011;28923;45.412;10.852;2023-07-22T17:37:42;4.50;;;1.30;;
43327;SDS011;28923;45.412;10.852;2023-07-22T17:40:08;4.85;;;1.83;;
43327;SDS011;28923;45.412;10.852;2023-07-22T17:42:33;8.60;;;2.90;;
43327;SDS011;28923;45.412;10.852;2023-07-22T17:44:59;10.73;;;3.10;;
43327;SDS011;28923;45.412;10.852;2023-07-22T17:47:24;10.27;;;3.13;;
43327;SDS011;28923;45.412;10.852;2023-07-22T17:49:49;11.77;;;3.30;;
43327;SDS011;28923;45.412;10.852;2023-07-22T17:52:15;11.90;;;3.33;;
43327;SDS011;28923;45.412;10.852;2023-07-22T17:54:40;7.65;;;2.92;;
43327;SDS011;28923;45.412;10.852;2023-07-22T17:57:06;6.47;;;2.90;;
43327;SDS011;28923;45.412;10.852;2023-07-22T17:59:31;10.45;;;3.10;;
43327;SDS011;28923;45.412;10.852;2023-07-22T18:01:56;8.32;;;2.75;;
43327;SDS011;28923;45.412;10.852;2023-07-22T18:04:22;7.80;;;2.47;;
43327;SDS011;28923;45.412;10.852;2023-07-22T18:06:47;7.57;;;2.80;;
43327;SDS011;28923;45.412;10.852;2023-07-22T18:09:13;8.13;;;3.20;;
43327;SDS011;28923;45.412;10.852;2023-07-22T18:11:38;6.47;;;2.70;;
43327;SDS011;28923;45.412;10.852;2023-07-22T18:14:03;6.90;;;2.80;;
43327;SDS011;28923;45.412;10.852;2023-07-22T18:16:29;8.15;;;3.20;;
43327;SDS011;28923;45.412;10.852;2023-07-22T18:18:54;7.00;;;2.72;;
43327;SDS011;28923;45.412;10.852;2023-07-22T18:21:20;7.35;;;2.60;;
43327;SDS011;28923;45.412;10.852;2023-07-22T18:23:45;8.20;;;3.10;;
43327;SDS011;28923;45.412;10.852;2023-07-22T18:26:11;6.72;;;2.67;;
43327;SDS011;28923;45.412;10.852;2023-07-22T18:28:37;4.93;;;2.50;;
43327;SDS011;28923;45.412;10.852;2023-07-22T18:31:02;5.90;;;2.58;;
43327;SDS011;28923;45.412;10.852;2023-07-22T18:33:28;4.57;;;2.53;;
43327;SDS011;28923;45.412;10.852;2023-07-22T18:35:53;6.93;;;2.70;;
43327;SDS011;28923;45.412;10.852;2023-07-22T18:38:19;5.32;;;2.40;;
43327;SDS011;28923;45.412;10.852;2023-07-22T18:40:45;5.45;;;2.55;;
43327;SDS011;28923;45.412;10.852;2023-07-22T18:43:10;3.60;;;2.20;;
43327;SDS011;28923;45.412;10.852;2023-07-22T18:45:36;7.65;;;2.53;;
43327;SDS011;28923;45.412;10.852;2023-07-22T18:48:01;5.85;;;2.70;;
43327;SDS011;28923;45.412;10.852;2023-07-22T18:50:27;4.40;;;2.38;;
43327;SDS011;28923;45.412;10.852;2023-07-22T18:52:53;3.33;;;2.35;;
43327;SDS011;28923;45.412;10.852;2023-07-22T18:55:18;4.80;;;2.47;;
43327;SDS011;28923;45.412;10.852;2023-07-22T18:57:44;5.60;;;2.55;;
43327;SDS011;28923;45.412;10.852;2023-07-22T19:00:09;2.70;;;2.15;;
43327;SDS011;28923;45.412;10.852;2023-07-22T19:02:37;6.32;;;2.33;;
43327;SDS011;28923;45.412;10.852;2023-07-22T19:05:02;5.07;;;2.30;;
43327;SDS011;28923;45.412;10.852;2023-07-22T19:07:28;5.32;;;2.10;;
43327;SDS011;28923;45.412;10.852;2023-07-22T19:09:53;3.47;;;2.45;;